sensor_id;sensor_type;location;lat;lon;timestamp;temperature;humidity
19039;DHT22;9652;49.014;12.052;2023-06-24T00:00:28;20.60;62.70
19039;DHT22;9652;49.014;12.052;2023-06-24T00:02:59;20.60;62.90
19039;DHT22;9652;49.014;12.052;2023-06-24T00:05:28;20.60;62.90
19039;DHT22;9652;49.014;12.052;2023-06-24T00:08:02;20.60;62.80
19039;DHT22;9652;49.014;12.052;2023-06-24T00:10:33;20.60;62.90
19039;DHT22;9652;49.014;12.052;2023-06-24T00:13:01;20.60;62.90
19039;DHT22;9652;49.014;12.052;2023-06-24T00:15:31;20.60;62.90
19039;DHT22;9652;49.014;12.052;2023-06-24T00:18:03;20.50;63.00
19039;DHT22;9652;49.014;12.052;2023-06-24T00:20:35;20.60;63.10
19039;DHT22;9652;49.014;12.052;2023-06-24T00:23:07;20.60;63.30
19039;DHT22;9652;49.014;12.052;2023-06-24T00:25:38;20.50;63.20
19039;DHT22;9652;49.014;12.052;2023-06-24T00:28:08;20.50;63.40
19039;DHT22;9652;49.014;12.052;2023-06-24T00:30:37;20.50;63.50
19039;DHT22;9652;49.014;12.052;2023-06-24T00:33:05;20.50;63.40
19039;DHT22;9652;49.014;12.052;2023-06-24T00:35:35;20.50;63.60
19039;DHT22;9652;49.014;12.052;2023-06-24T00:38:04;20.50;63.70
19039;DHT22;9652;49.014;12.052;2023-06-24T00:40:34;20.50;63.80
19039;DHT22;9652;49.014;12.052;2023-06-24T00:43:06;20.60;63.80
19039;DHT22;9652;49.014;12.052;2023-06-24T00:45:35;20.50;63.90
19039;DHT22;9652;49.014;12.052;2023-06-24T00:48:03;20.60;63.90
19039;DHT22;9652;49.014;12.052;2023-06-24T00:50:32;20.50;63.90
19039;DHT22;9652;49.014;12.052;2023-06-24T00:53:01;20.50;63.90
19039;DHT22;9652;49.014;12.052;2023-06-24T00:55:31;20.50;64.00
19039;DHT22;9652;49.014;12.052;2023-06-24T00:57:58;20.60;64.30
19039;DHT22;9652;49.014;12.052;2023-06-24T01:00:27;20.50;64.20
19039;DHT22;9652;49.014;12.052;2023-06-24T01:02:54;20.50;64.20
19039;DHT22;9652;49.014;12.052;2023-06-24T01:05:23;20.50;64.20
19039;DHT22;9652;49.014;12.052;2023-06-24T01:07:51;20.50;64.30
19039;DHT22;9652;49.014;12.052;2023-06-24T01:10:22;20.50;64.40
19039;DHT22;9652;49.014;12.052;2023-06-24T01:12:51;20.50;64.30
19039;DHT22;9652;49.014;12.052;2023-06-24T01:15:19;20.50;64.40
19039;DHT22;9652;49.014;12.052;2023-06-24T01:17:53;20.50;64.40
19039;DHT22;9652;49.014;12.052;2023-06-24T01:20:27;20.40;64.60
19039;DHT22;9652;49.014;12.052;2023-06-24T01:26:33;20.60;64.80
19039;DHT22;9652;49.014;12.052;2023-06-24T01:29:50;20.60;64.60
19039;DHT22;9652;49.014;12.052;2023-06-24T01:32:28;20.50;64.70
19039;DHT22;9652;49.014;12.052;2023-06-24T01:35:03;20.50;64.50
19039;DHT22;9652;49.014;12.052;2023-06-24T01:37:40;20.60;64.50
19039;DHT22;9652;49.014;12.052;2023-06-24T01:40:11;20.50;64.60
19039;DHT22;9652;49.014;12.052;2023-06-24T01:42:42;20.50;64.50
19039;DHT22;9652;49.014;12.052;2023-06-24T01:45:14;20.50;64.50
19039;DHT22;9652;49.014;12.052;2023-06-24T01:47:47;20.50;64.50
19039;DHT22;9652;49.014;12.052;2023-06-24T01:50:16;20.50;64.80
19039;DHT22;9652;49.014;12.052;2023-06-24T01:52:51;20.50;64.60
19039;DHT22;9652;49.014;12.052;2023-06-24T01:55:22;20.50;64.70
19039;DHT22;9652;49.014;12.052;2023-06-24T01:57:51;20.40;64.70
19039;DHT22;9652;49.014;12.052;2023-06-24T02:00:20;20.40;64.80
19039;DHT22;9652;49.014;12.052;2023-06-24T02:02:49;20.40;64.80
19039;DHT22;9652;49.014;12.052;2023-06-24T02:05:18;20.40;65.00
19039;DHT22;9652;49.014;12.052;2023-06-24T02:07:49;20.40;65.00
19039;DHT22;9652;49.014;12.052;2023-06-24T02:10:19;20.40;65.00
19039;DHT22;9652;49.014;12.052;2023-06-24T02:12:49;20.40;65.10
19039;DHT22;9652;49.014;12.052;2023-06-24T02:15:18;20.40;65.20
19039;DHT22;9652;49.014;12.052;2023-06-24T02:17:50;20.40;65.10
19039;DHT22;9652;49.014;12.052;2023-06-24T02:20:23;20.40;65.30
19039;DHT22;9652;49.014;12.052;2023-06-24T02:22:54;20.50;65.30
19039;DHT22;9652;49.014;12.052;2023-06-24T02:25:24;20.40;65.20
19039;DHT22;9652;49.014;12.052;2023-06-24T02:27:53;20.40;65.30
19039;DHT22;9652;49.014;12.052;2023-06-24T02:30:22;20.40;65.30
19039;DHT22;9652;49.014;12.052;2023-06-24T02:32:53;20.40;65.30
19039;DHT22;9652;49.014;12.052;2023-06-24T02:35:20;20.40;65.30
19039;DHT22;9652;49.014;12.052;2023-06-24T02:37:47;20.40;65.30
19039;DHT22;9652;49.014;12.052;2023-06-24T02:40:16;20.40;65.30
19039;DHT22;9652;49.014;12.052;2023-06-24T02:42:43;20.40;65.40
19039;DHT22;9652;49.014;12.052;2023-06-24T02:45:10;20.40;65.50
19039;DHT22;9652;49.014;12.052;2023-06-24T02:47:40;20.40;65.60
19039;DHT22;9652;49.014;12.052;2023-06-24T02:50:12;20.40;65.60
19039;DHT22;9652;49.014;12.052;2023-06-24T02:52:42;20.40;65.80
19039;DHT22;9652;49.014;12.052;2023-06-24T02:55:12;20.40;65.80
19039;DHT22;9652;49.014;12.052;2023-06-24T02:57:46;20.40;65.80
19039;DHT22;9652;49.014;12.052;2023-06-24T03:00:44;20.40;65.80
19039;DHT22;9652;49.014;12.052;2023-06-24T03:03:30;20.40;65.80
19039;DHT22;9652;49.014;12.052;2023-06-24T03:06:00;20.40;65.80
19039;DHT22;9652;49.014;12.052;2023-06-24T03:08:29;20.40;65.90
19039;DHT22;9652;49.014;12.052;2023-06-24T03:10:58;20.50;65.90
19039;DHT22;9652;49.014;12.052;2023-06-24T03:13:28;20.40;65.80
19039;DHT22;9652;49.014;12.052;2023-06-24T03:16:01;20.40;65.80
19039;DHT22;9652;49.014;12.052;2023-06-24T03:18:33;20.40;65.80
19039;DHT22;9652;49.014;12.052;2023-06-24T03:21:01;20.40;65.80
19039;DHT22;9652;49.014;12.052;2023-06-24T03:23:30;20.40;65.80
19039;DHT22;9652;49.014;12.052;2023-06-24T03:25:58;20.50;66.00
19039;DHT22;9652;49.014;12.052;2023-06-24T03:28:25;20.50;66.00
19039;DHT22;9652;49.014;12.052;2023-06-24T03:31:04;20.40;65.80
19039;DHT22;9652;49.014;12.052;2023-06-24T03:33:31;20.50;66.00
19039;DHT22;9652;49.014;12.052;2023-06-24T03:36:00;20.50;66.00
19039;DHT22;9652;49.014;12.052;2023-06-24T03:38:30;20.50;66.00
19039;DHT22;9652;49.014;12.052;2023-06-24T03:40:57;20.50;66.00
19039;DHT22;9652;49.014;12.052;2023-06-24T03:43:24;20.50;66.00
19039;DHT22;9652;49.014;12.052;2023-06-24T03:45:52;20.50;66.00
19039;DHT22;9652;49.014;12.052;2023-06-24T03:48:20;20.50;65.90
19039;DHT22;9652;49.014;12.052;2023-06-24T03:50:47;20.50;65.80
19039;DHT22;9652;49.014;12.052;2023-06-24T03:53:15;20.50;65.80
19039;DHT22;9652;49.014;12.052;2023-06-24T03:55:42;20.50;65.90
19039;DHT22;9652;49.014;12.052;2023-06-24T03:58:09;20.50;65.80
19039;DHT22;9652;49.014;12.052;2023-06-24T04:00:38;20.60;65.90
19039;DHT22;9652;49.014;12.052;2023-06-24T04:03:06;20.60;66.00
19039;DHT22;9652;49.014;12.052;2023-06-24T04:05:33;20.60;66.10
19039;DHT22;9652;49.014;12.052;2023-06-24T04:08:00;20.60;66.00
19039;DHT22;9652;49.014;12.052;2023-06-24T04:10:32;20.60;65.80
19039;DHT22;9652;49.014;12.052;2023-06-24T04:13:00;20.60;65.80
19039;DHT22;9652;49.014;12.052;2023-06-24T04:15:27;20.70;65.80
19039;DHT22;9652;49.014;12.052;2023-06-24T04:17:54;20.70;66.00
19039;DHT22;9652;49.014;12.052;2023-06-24T04:20:21;20.70;65.90
19039;DHT22;9652;49.014;12.052;2023-06-24T04:22:50;20.70;65.90
19039;DHT22;9652;49.014;12.052;2023-06-24T04:25:17;20.70;65.80
19039;DHT22;9652;49.014;12.052;2023-06-24T04:27:46;20.80;65.80
19039;DHT22;9652;49.014;12.052;2023-06-24T04:30:13;20.80;65.90
19039;DHT22;9652;49.014;12.052;2023-06-24T04:32:40;20.80;65.80
19039;DHT22;9652;49.014;12.052;2023-06-24T04:35:08;20.90;65.80
19039;DHT22;9652;49.014;12.052;2023-06-24T04:37:37;20.90;65.80
19039;DHT22;9652;49.014;12.052;2023-06-24T04:40:05;20.90;65.70
19039;DHT22;9652;49.014;12.052;2023-06-24T04:42:33;21.00;65.70
19039;DHT22;9652;49.014;12.052;2023-06-24T04:45:02;21.00;65.60
19039;DHT22;9652;49.014;12.052;2023-06-24T04:47:31;21.00;65.50
19039;DHT22;9652;49.014;12.052;2023-06-24T04:49:58;21.10;65.50
19039;DHT22;9652;49.014;12.052;2023-06-24T04:52:25;21.10;65.50
19039;DHT22;9652;49.014;12.052;2023-06-24T04:54:52;21.20;65.70
19039;DHT22;9652;49.014;12.052;2023-06-24T04:57:27;21.20;65.70
19039;DHT22;9652;49.014;12.052;2023-06-24T04:59:56;21.20;65.40
19039;DHT22;9652;49.014;12.052;2023-06-24T05:02:25;21.30;65.30
19039;DHT22;9652;49.014;12.052;2023-06-24T05:04:52;21.30;65.10
19039;DHT22;9652;49.014;12.052;2023-06-24T05:07:20;21.30;65.00
19039;DHT22;9652;49.014;12.052;2023-06-24T05:09:47;21.40;65.00
19039;DHT22;9652;49.014;12.052;2023-06-24T05:12:16;21.40;65.00
19039;DHT22;9652;49.014;12.052;2023-06-24T05:14:43;21.40;64.90
19039;DHT22;9652;49.014;12.052;2023-06-24T05:17:10;21.50;65.10
19039;DHT22;9652;49.014;12.052;2023-06-24T05:19:39;21.50;64.90
19039;DHT22;9652;49.014;12.052;2023-06-24T05:22:06;21.50;64.70
19039;DHT22;9652;49.014;12.052;2023-06-24T05:24:33;21.60;64.80
19039;DHT22;9652;49.014;12.052;2023-06-24T05:27:04;21.70;64.70
19039;DHT22;9652;49.014;12.052;2023-06-24T05:29:32;21.70;64.50
19039;DHT22;9652;49.014;12.052;2023-06-24T05:31:59;21.70;64.60
19039;DHT22;9652;49.014;12.052;2023-06-24T05:34:29;21.80;64.60
19039;DHT22;9652;49.014;12.052;2023-06-24T05:36:57;21.90;64.40
19039;DHT22;9652;49.014;12.052;2023-06-24T05:39:24;21.90;64.20
19039;DHT22;9652;49.014;12.052;2023-06-24T05:41:51;22.00;64.20
19039;DHT22;9652;49.014;12.052;2023-06-24T05:44:18;22.10;64.10
19039;DHT22;9652;49.014;12.052;2023-06-24T05:46:45;22.10;63.80
19039;DHT22;9652;49.014;12.052;2023-06-24T05:49:12;22.20;63.80
19039;DHT22;9652;49.014;12.052;2023-06-24T05:51:39;22.20;63.90
19039;DHT22;9652;49.014;12.052;2023-06-24T05:54:08;22.40;63.90
19039;DHT22;9652;49.014;12.052;2023-06-24T05:56:35;22.40;63.50
19039;DHT22;9652;49.014;12.052;2023-06-24T05:59:02;22.60;63.30
19039;DHT22;9652;49.014;12.052;2023-06-24T06:01:29;22.60;62.80
19039;DHT22;9652;49.014;12.052;2023-06-24T06:03:56;22.70;62.70
19039;DHT22;9652;49.014;12.052;2023-06-24T06:06:23;22.70;62.70
19039;DHT22;9652;49.014;12.052;2023-06-24T06:08:50;22.80;62.70
19039;DHT22;9652;49.014;12.052;2023-06-24T06:11:18;22.80;62.50
19039;DHT22;9652;49.014;12.052;2023-06-24T06:13:46;22.90;62.40
19039;DHT22;9652;49.014;12.052;2023-06-24T06:16:13;23.00;62.00
19039;DHT22;9652;49.014;12.052;2023-06-24T06:18:40;23.00;61.90
19039;DHT22;9652;49.014;12.052;2023-06-24T06:21:07;23.10;61.90
19039;DHT22;9652;49.014;12.052;2023-06-24T06:23:34;23.20;61.80
19039;DHT22;9652;49.014;12.052;2023-06-24T06:26:01;23.20;61.50
19039;DHT22;9652;49.014;12.052;2023-06-24T06:28:29;23.20;61.10
19039;DHT22;9652;49.014;12.052;2023-06-24T06:30:56;23.30;60.80
19039;DHT22;9652;49.014;12.052;2023-06-24T06:33:23;23.30;60.30
19039;DHT22;9652;49.014;12.052;2023-06-24T06:35:50;23.30;59.90
19039;DHT22;9652;49.014;12.052;2023-06-24T06:38:17;23.20;59.70
19039;DHT22;9652;49.014;12.052;2023-06-24T06:40:44;23.20;59.60
19039;DHT22;9652;49.014;12.052;2023-06-24T06:43:12;23.10;59.50
19039;DHT22;9652;49.014;12.052;2023-06-24T06:45:40;23.10;59.60
19039;DHT22;9652;49.014;12.052;2023-06-24T06:48:07;23.00;59.40
19039;DHT22;9652;49.014;12.052;2023-06-24T06:50:34;23.00;59.60
19039;DHT22;9652;49.014;12.052;2023-06-24T06:53:02;22.90;59.60
19039;DHT22;9652;49.014;12.052;2023-06-24T06:55:29;22.90;59.60
19039;DHT22;9652;49.014;12.052;2023-06-24T06:57:56;22.80;59.60
19039;DHT22;9652;49.014;12.052;2023-06-24T07:00:23;22.90;60.00
19039;DHT22;9652;49.014;12.052;2023-06-24T07:02:52;22.80;60.10
19039;DHT22;9652;49.014;12.052;2023-06-24T07:05:19;22.90;60.00
19039;DHT22;9652;49.014;12.052;2023-06-24T07:07:46;22.90;59.70
19039;DHT22;9652;49.014;12.052;2023-06-24T07:10:15;23.00;59.50
19039;DHT22;9652;49.014;12.052;2023-06-24T07:12:43;23.00;59.40
19039;DHT22;9652;49.014;12.052;2023-06-24T07:15:10;23.00;59.30
19039;DHT22;9652;49.014;12.052;2023-06-24T07:17:37;23.10;59.40
19039;DHT22;9652;49.014;12.052;2023-06-24T07:20:07;23.10;59.30
19039;DHT22;9652;49.014;12.052;2023-06-24T07:22:34;23.10;59.00
19039;DHT22;9652;49.014;12.052;2023-06-24T07:25:02;23.20;59.60
19039;DHT22;9652;49.014;12.052;2023-06-24T07:27:29;23.20;58.80
19039;DHT22;9652;49.014;12.052;2023-06-24T07:29:56;23.30;59.30
19039;DHT22;9652;49.014;12.052;2023-06-24T07:32:23;23.40;58.80
19039;DHT22;9652;49.014;12.052;2023-06-24T07:34:50;23.40;58.80
19039;DHT22;9652;49.014;12.052;2023-06-24T07:37:19;23.40;58.90
19039;DHT22;9652;49.014;12.052;2023-06-24T07:39:46;23.50;58.80
19039;DHT22;9652;49.014;12.052;2023-06-24T07:42:13;23.60;58.90
19039;DHT22;9652;49.014;12.052;2023-06-24T07:44:44;23.60;58.80
19039;DHT22;9652;49.014;12.052;2023-06-24T07:47:11;23.70;58.80
19039;DHT22;9652;49.014;12.052;2023-06-24T07:49:38;23.80;58.70
19039;DHT22;9652;49.014;12.052;2023-06-24T07:52:06;23.90;58.50
19039;DHT22;9652;49.014;12.052;2023-06-24T07:54:35;24.00;58.50
19039;DHT22;9652;49.014;12.052;2023-06-24T07:57:02;24.10;58.30
19039;DHT22;9652;49.014;12.052;2023-06-24T07:59:30;24.30;58.70
19039;DHT22;9652;49.014;12.052;2023-06-24T08:01:57;24.40;58.90
19039;DHT22;9652;49.014;12.052;2023-06-24T08:04:24;24.60;58.80
19039;DHT22;9652;49.014;12.052;2023-06-24T08:06:51;24.80;58.60
19039;DHT22;9652;49.014;12.052;2023-06-24T08:09:19;25.00;58.40
19039;DHT22;9652;49.014;12.052;2023-06-24T08:11:47;25.20;58.50
19039;DHT22;9652;49.014;12.052;2023-06-24T08:14:14;25.40;58.40
19039;DHT22;9652;49.014;12.052;2023-06-24T08:16:41;25.60;58.30
19039;DHT22;9652;49.014;12.052;2023-06-24T08:19:08;25.90;57.90
19039;DHT22;9652;49.014;12.052;2023-06-24T08:21:35;26.00;57.10
19039;DHT22;9652;49.014;12.052;2023-06-24T08:24:04;26.20;56.70
19039;DHT22;9652;49.014;12.052;2023-06-24T08:26:31;26.30;56.30
19039;DHT22;9652;49.014;12.052;2023-06-24T08:29:00;26.40;56.20
19039;DHT22;9652;49.014;12.052;2023-06-24T08:31:27;26.50;55.60
19039;DHT22;9652;49.014;12.052;2023-06-24T08:33:54;26.60;55.30
19039;DHT22;9652;49.014;12.052;2023-06-24T08:36:27;26.60;54.30
19039;DHT22;9652;49.014;12.052;2023-06-24T08:38:55;26.50;53.90
19039;DHT22;9652;49.014;12.052;2023-06-24T08:41:23;26.40;53.70
19039;DHT22;9652;49.014;12.052;2023-06-24T08:43:52;26.30;53.50
19039;DHT22;9652;49.014;12.052;2023-06-24T08:46:20;26.20;53.50
19039;DHT22;9652;49.014;12.052;2023-06-24T08:48:49;26.20;53.80
19039;DHT22;9652;49.014;12.052;2023-06-24T08:51:20;26.10;54.00
19039;DHT22;9652;49.014;12.052;2023-06-24T08:53:51;26.20;53.60
19039;DHT22;9652;49.014;12.052;2023-06-24T08:56:18;26.30;53.40
19039;DHT22;9652;49.014;12.052;2023-06-24T08:58:45;26.30;52.90
19039;DHT22;9652;49.014;12.052;2023-06-24T09:01:12;26.30;52.50
19039;DHT22;9652;49.014;12.052;2023-06-24T09:03:40;26.30;52.50
19039;DHT22;9652;49.014;12.052;2023-06-24T09:06:08;26.30;52.30
19039;DHT22;9652;49.014;12.052;2023-06-24T09:08:35;26.30;52.30
19039;DHT22;9652;49.014;12.052;2023-06-24T09:11:05;26.30;51.90
19039;DHT22;9652;49.014;12.052;2023-06-24T09:13:35;26.40;51.60
19039;DHT22;9652;49.014;12.052;2023-06-24T09:16:12;26.50;52.00
19039;DHT22;9652;49.014;12.052;2023-06-24T09:18:47;26.60;51.50
19039;DHT22;9652;49.014;12.052;2023-06-24T09:21:21;26.70;51.40
19039;DHT22;9652;49.014;12.052;2023-06-24T09:23:52;26.90;50.60
19039;DHT22;9652;49.014;12.052;2023-06-24T09:26:22;27.00;51.40
19039;DHT22;9652;49.014;12.052;2023-06-24T09:28:50;27.10;51.20
19039;DHT22;9652;49.014;12.052;2023-06-24T09:31:18;27.20;50.60
19039;DHT22;9652;49.014;12.052;2023-06-24T09:33:47;27.20;50.30
19039;DHT22;9652;49.014;12.052;2023-06-24T09:36:14;27.30;49.70
19039;DHT22;9652;49.014;12.052;2023-06-24T09:38:43;27.20;49.80
19039;DHT22;9652;49.014;12.052;2023-06-24T09:41:11;27.10;49.80
19039;DHT22;9652;49.014;12.052;2023-06-24T09:43:38;27.10;50.10
19039;DHT22;9652;49.014;12.052;2023-06-24T09:46:06;27.00;49.90
19039;DHT22;9652;49.014;12.052;2023-06-24T09:48:34;27.10;49.80
19039;DHT22;9652;49.014;12.052;2023-06-24T09:51:04;27.10;49.80
19039;DHT22;9652;49.014;12.052;2023-06-24T09:53:33;27.20;50.00
19039;DHT22;9652;49.014;12.052;2023-06-24T09:56:03;27.40;50.50
19039;DHT22;9652;49.014;12.052;2023-06-24T09:58:33;27.60;50.20
19039;DHT22;9652;49.014;12.052;2023-06-24T10:01:03;27.80;50.20
19039;DHT22;9652;49.014;12.052;2023-06-24T10:03:32;28.00;49.70
19039;DHT22;9652;49.014;12.052;2023-06-24T10:06:03;28.10;48.80
19039;DHT22;9652;49.014;12.052;2023-06-24T10:08:32;28.20;48.10
19039;DHT22;9652;49.014;12.052;2023-06-24T10:11:00;28.20;47.70
19039;DHT22;9652;49.014;12.052;2023-06-24T10:13:28;28.20;47.50
19039;DHT22;9652;49.014;12.052;2023-06-24T10:15:56;28.20;47.50
19039;DHT22;9652;49.014;12.052;2023-06-24T10:18:33;28.10;47.50
19039;DHT22;9652;49.014;12.052;2023-06-24T10:21:02;28.10;46.70
19039;DHT22;9652;49.014;12.052;2023-06-24T10:23:31;28.20;47.30
19039;DHT22;9652;49.014;12.052;2023-06-24T10:26:00;28.30;47.30
19039;DHT22;9652;49.014;12.052;2023-06-24T10:29:08;28.20;46.90
19039;DHT22;9652;49.014;12.052;2023-06-24T10:31:53;28.40;45.00
19039;DHT22;9652;49.014;12.052;2023-06-24T10:34:39;28.50;45.10
19039;DHT22;9652;49.014;12.052;2023-06-24T10:37:13;28.60;44.20
19039;DHT22;9652;49.014;12.052;2023-06-24T10:39:51;28.60;45.00
19039;DHT22;9652;49.014;12.052;2023-06-24T10:42:27;28.70;44.90
19039;DHT22;9652;49.014;12.052;2023-06-24T10:45:00;28.80;45.10
19039;DHT22;9652;49.014;12.052;2023-06-24T10:47:29;28.90;45.80
19039;DHT22;9652;49.014;12.052;2023-06-24T10:49:56;29.00;45.10
19039;DHT22;9652;49.014;12.052;2023-06-24T10:52:25;29.00;44.90
19039;DHT22;9652;49.014;12.052;2023-06-24T10:54:53;29.00;44.40
19039;DHT22;9652;49.014;12.052;2023-06-24T10:57:22;28.90;44.30
19039;DHT22;9652;49.014;12.052;2023-06-24T10:59:51;28.80;44.10
19039;DHT22;9652;49.014;12.052;2023-06-24T11:02:20;28.80;44.20
19039;DHT22;9652;49.014;12.052;2023-06-24T11:04:50;28.70;44.10
19039;DHT22;9652;49.014;12.052;2023-06-24T11:07:19;28.60;43.80
19039;DHT22;9652;49.014;12.052;2023-06-24T11:09:52;28.70;44.00
19039;DHT22;9652;49.014;12.052;2023-06-24T11:12:24;28.60;43.60
19039;DHT22;9652;49.014;12.052;2023-06-24T11:14:55;28.70;43.90
19039;DHT22;9652;49.014;12.052;2023-06-24T11:17:23;28.80;44.20
19039;DHT22;9652;49.014;12.052;2023-06-24T11:19:52;28.80;44.00
19039;DHT22;9652;49.014;12.052;2023-06-24T11:22:20;28.80;43.70
19039;DHT22;9652;49.014;12.052;2023-06-24T11:24:48;28.80;43.10
19039;DHT22;9652;49.014;12.052;2023-06-24T11:27:23;28.80;43.50
19039;DHT22;9652;49.014;12.052;2023-06-24T11:29:51;28.70;43.20
19039;DHT22;9652;49.014;12.052;2023-06-24T11:32:19;28.70;43.50
19039;DHT22;9652;49.014;12.052;2023-06-24T11:34:47;28.70;43.20
19039;DHT22;9652;49.014;12.052;2023-06-24T11:37:18;28.70;43.00
19039;DHT22;9652;49.014;12.052;2023-06-24T11:40:00;28.80;43.10
19039;DHT22;9652;49.014;12.052;2023-06-24T11:42:31;29.10;41.90
19039;DHT22;9652;49.014;12.052;2023-06-24T11:45:01;29.10;42.80
19039;DHT22;9652;49.014;12.052;2023-06-24T11:47:31;29.20;42.10
19039;DHT22;9652;49.014;12.052;2023-06-24T11:50:00;29.20;42.10
19039;DHT22;9652;49.014;12.052;2023-06-24T11:52:39;29.30;42.30
19039;DHT22;9652;49.014;12.052;2023-06-24T11:55:16;29.30;41.30
19039;DHT22;9652;49.014;12.052;2023-06-24T11:57:53;29.30;41.60
19039;DHT22;9652;49.014;12.052;2023-06-24T12:00:23;29.30;41.40
19039;DHT22;9652;49.014;12.052;2023-06-24T12:02:56;29.40;42.10
19039;DHT22;9652;49.014;12.052;2023-06-24T12:05:26;29.50;41.90
19039;DHT22;9652;49.014;12.052;2023-06-24T12:07:56;29.50;42.10
19039;DHT22;9652;49.014;12.052;2023-06-24T12:10:27;29.70;41.80
19039;DHT22;9652;49.014;12.052;2023-06-24T12:12:57;29.80;42.10
19039;DHT22;9652;49.014;12.052;2023-06-24T12:15:24;29.90;41.30
19039;DHT22;9652;49.014;12.052;2023-06-24T12:17:52;29.90;41.60
19039;DHT22;9652;49.014;12.052;2023-06-24T12:20:20;30.10;41.60
19039;DHT22;9652;49.014;12.052;2023-06-24T12:22:48;30.20;41.40
19039;DHT22;9652;49.014;12.052;2023-06-24T12:25:17;30.40;41.20
19039;DHT22;9652;49.014;12.052;2023-06-24T12:27:45;30.50;40.50
19039;DHT22;9652;49.014;12.052;2023-06-24T12:30:14;30.60;40.00
19039;DHT22;9652;49.014;12.052;2023-06-24T12:32:42;30.70;39.60
19039;DHT22;9652;49.014;12.052;2023-06-24T12:35:09;30.70;39.00
19039;DHT22;9652;49.014;12.052;2023-06-24T12:37:37;30.60;39.20
19039;DHT22;9652;49.014;12.052;2023-06-24T12:40:05;30.50;39.10
19039;DHT22;9652;49.014;12.052;2023-06-24T12:42:33;30.50;39.40
19039;DHT22;9652;49.014;12.052;2023-06-24T12:45:00;30.50;39.70
19039;DHT22;9652;49.014;12.052;2023-06-24T12:47:29;30.50;39.80
19039;DHT22;9652;49.014;12.052;2023-06-24T12:49:56;30.60;39.30
19039;DHT22;9652;49.014;12.052;2023-06-24T12:52:23;30.70;39.40
19039;DHT22;9652;49.014;12.052;2023-06-24T12:54:50;30.80;39.40
19039;DHT22;9652;49.014;12.052;2023-06-24T12:57:17;30.90;39.30
19039;DHT22;9652;49.014;12.052;2023-06-24T12:59:44;31.10;39.10
19039;DHT22;9652;49.014;12.052;2023-06-24T13:02:11;31.20;38.40
19039;DHT22;9652;49.014;12.052;2023-06-24T13:04:40;31.20;38.10
19039;DHT22;9652;49.014;12.052;2023-06-24T13:07:07;31.20;38.10
19039;DHT22;9652;49.014;12.052;2023-06-24T13:09:35;31.20;38.40
19039;DHT22;9652;49.014;12.052;2023-06-24T13:12:02;31.20;38.30
19039;DHT22;9652;49.014;12.052;2023-06-24T13:14:30;31.40;39.30
19039;DHT22;9652;49.014;12.052;2023-06-24T13:16:57;31.60;39.40
19039;DHT22;9652;49.014;12.052;2023-06-24T13:19:24;31.80;38.90
19039;DHT22;9652;49.014;12.052;2023-06-24T13:21:53;32.00;38.00
19039;DHT22;9652;49.014;12.052;2023-06-24T13:24:20;32.10;37.40
19039;DHT22;9652;49.014;12.052;2023-06-24T13:26:47;32.00;37.60
19039;DHT22;9652;49.014;12.052;2023-06-24T13:29:14;32.00;38.00
19039;DHT22;9652;49.014;12.052;2023-06-24T13:31:41;32.10;37.70
19039;DHT22;9652;49.014;12.052;2023-06-24T13:34:08;32.20;38.10
19039;DHT22;9652;49.014;12.052;2023-06-24T13:36:36;32.50;38.70
19039;DHT22;9652;49.014;12.052;2023-06-24T13:39:06;32.80;38.30
19039;DHT22;9652;49.014;12.052;2023-06-24T13:41:37;33.20;38.00
19039;DHT22;9652;49.014;12.052;2023-06-24T13:44:04;33.60;38.30
19039;DHT22;9652;49.014;12.052;2023-06-24T13:46:32;34.00;38.20
19039;DHT22;9652;49.014;12.052;2023-06-24T13:49:00;34.50;38.00
19039;DHT22;9652;49.014;12.052;2023-06-24T13:51:27;34.90;36.60
19039;DHT22;9652;49.014;12.052;2023-06-24T13:53:55;35.30;35.80
19039;DHT22;9652;49.014;12.052;2023-06-24T13:56:24;35.70;35.00
19039;DHT22;9652;49.014;12.052;2023-06-24T13:58:52;35.90;34.40
19039;DHT22;9652;49.014;12.052;2023-06-24T14:01:20;36.10;34.20
19039;DHT22;9652;49.014;12.052;2023-06-24T14:03:48;36.30;33.90
19039;DHT22;9652;49.014;12.052;2023-06-24T14:06:17;36.40;33.80
19039;DHT22;9652;49.014;12.052;2023-06-24T14:08:45;36.60;33.40
19039;DHT22;9652;49.014;12.052;2023-06-24T14:11:13;36.80;32.90
19039;DHT22;9652;49.014;12.052;2023-06-24T14:13:42;37.00;32.70
19039;DHT22;9652;49.014;12.052;2023-06-24T14:16:10;37.20;32.30
19039;DHT22;9652;49.014;12.052;2023-06-24T14:18:38;37.40;31.90
19039;DHT22;9652;49.014;12.052;2023-06-24T14:21:06;37.60;31.60
19039;DHT22;9652;49.014;12.052;2023-06-24T14:23:34;37.70;31.60
19039;DHT22;9652;49.014;12.052;2023-06-24T14:26:02;37.90;31.10
19039;DHT22;9652;49.014;12.052;2023-06-24T14:28:29;38.00;31.30
19039;DHT22;9652;49.014;12.052;2023-06-24T14:30:58;38.20;31.10
19039;DHT22;9652;49.014;12.052;2023-06-24T14:33:25;38.50;31.10
19039;DHT22;9652;49.014;12.052;2023-06-24T14:35:52;38.70;31.20
19039;DHT22;9652;49.014;12.052;2023-06-24T14:38:19;39.00;30.60
19039;DHT22;9652;49.014;12.052;2023-06-24T14:40:46;39.20;29.90
19039;DHT22;9652;49.014;12.052;2023-06-24T14:43:13;39.20;29.10
19039;DHT22;9652;49.014;12.052;2023-06-24T14:45:40;39.10;28.50
19039;DHT22;9652;49.014;12.052;2023-06-24T14:48:09;38.80;28.50
19039;DHT22;9652;49.014;12.052;2023-06-24T14:50:36;38.60;28.80
19039;DHT22;9652;49.014;12.052;2023-06-24T14:53:03;38.40;28.90
19039;DHT22;9652;49.014;12.052;2023-06-24T14:55:30;38.40;29.00
19039;DHT22;9652;49.014;12.052;2023-06-24T14:57:58;38.40;29.20
19039;DHT22;9652;49.014;12.052;2023-06-24T15:00:25;38.50;29.00
19039;DHT22;9652;49.014;12.052;2023-06-24T15:02:52;38.60;28.80
19039;DHT22;9652;49.014;12.052;2023-06-24T15:05:21;38.70;28.40
19039;DHT22;9652;49.014;12.052;2023-06-24T15:07:48;38.70;28.00
19039;DHT22;9652;49.014;12.052;2023-06-24T15:10:15;38.70;27.80
19039;DHT22;9652;49.014;12.052;2023-06-24T15:12:42;38.50;27.80
19039;DHT22;9652;49.014;12.052;2023-06-24T15:15:09;38.30;28.00
19039;DHT22;9652;49.014;12.052;2023-06-24T15:17:37;38.20;28.30
19039;DHT22;9652;49.014;12.052;2023-06-24T15:20:07;38.10;28.30
19039;DHT22;9652;49.014;12.052;2023-06-24T15:22:36;38.10;28.10
19039;DHT22;9652;49.014;12.052;2023-06-24T15:25:04;38.00;28.40
19039;DHT22;9652;49.014;12.052;2023-06-24T15:27:32;38.00;28.20
19039;DHT22;9652;49.014;12.052;2023-06-24T15:29:59;38.00;28.20
19039;DHT22;9652;49.014;12.052;2023-06-24T15:32:26;38.00;28.30
19039;DHT22;9652;49.014;12.052;2023-06-24T15:34:53;38.10;28.30
19039;DHT22;9652;49.014;12.052;2023-06-24T15:37:20;38.30;28.00
19039;DHT22;9652;49.014;12.052;2023-06-24T15:39:50;38.40;27.90
19039;DHT22;9652;49.014;12.052;2023-06-24T15:42:17;38.60;27.80
19039;DHT22;9652;49.014;12.052;2023-06-24T15:44:44;38.70;27.60